Time;durP1;ratioP1;P1;durP2;ratioP2;P2;SDS_P1;SDS_P2;PMS_P1;PMS_P2;Temp;Humidity;BMP_temperature;BMP_pressure;BME280_temperature;BME280_humidity;BME280_pressure;Samples;Min_cycle;Max_cycle;Signal;HPM_P1;HPM_P2
2021/03/12 00:01:16;;;;;;;6.40;1.20;;;;;;;7.11;70.07;95969.63;5051998;28;20210;-70
2021/03/12 00:03:41;;;;;;;2.07;0.90;;;;;;;7.13;69.05;95965.09;5042926;28;20201;-69
2021/03/12 00:06:09;;;;;;;1.97;1.00;;;;;;;7.10;68.50;95970.59;5050347;28;20179;-67
2021/03/12 00:08:39;;;;;;;2.20;1.00;;;;;;;7.56;67.44;95972.75;5034469;28;20179;-68
2021/03/12 00:11:05;;;;;;;4.07;1.00;;;;;;;7.46;67.43;95969.50;5035034;28;20516;-69
2021/03/12 00:13:31;;;;;;;2.70;0.80;;;;;;;7.65;66.27;95973.56;5051547;28;20424;-68
2021/03/12 00:15:57;;;;;;;2.20;1.30;;;;;;;7.57;66.48;95981.38;5033447;28;20426;-68
2021/03/12 00:18:26;;;;;;;1.30;0.80;;;;;;;7.64;66.39;95982.38;5050796;28;20424;-68
2021/03/12 00:20:51;;;;;;;2.80;1.03;;;;;;;7.61;65.82;95978.31;5057436;28;20210;-67
2021/03/12 00:23:17;;;;;;;5.63;1.73;;;;;;;7.52;66.48;95974.88;5054342;28;20437;-69
2021/03/12 00:25:45;;;;;;;2.80;1.00;;;;;;;7.66;66.02;95983.84;5052374;28;20175;-68
2021/03/12 00:28:12;;;;;;;2.33;1.20;;;;;;;7.48;66.85;95977.97;5051694;28;20190;-70
2021/03/12 00:30:38;;;;;;;1.87;0.83;;;;;;;7.61;65.77;95982.69;5050516;28;20509;-69
2021/03/12 00:33:05;;;;;;;3.77;0.90;;;;;;;7.79;65.34;95980.75;5051405;28;20445;-69
2021/03/12 00:35:42;;;;;;;3.03;0.90;;;;;;;7.59;64.99;95995.06;5050926;28;20422;-68
2021/03/12 00:38:08;;;;;;;6.67;1.00;;;;;;;7.51;65.35;95999.31;5051240;28;21001;-68
2021/03/12 00:40:41;;;;;;;1.93;0.77;;;;;;;7.63;64.29;95991.19;5061441;28;20759;-69
2021/03/12 00:43:07;;;;;;;4.57;1.20;;;;;;;7.73;63.07;95991.03;5045638;28;20449;-69
2021/03/12 00:45:38;;;;;;;2.53;1.17;;;;;;;7.61;63.31;95995.72;5053136;28;20465;-68
2021/03/12 00:48:04;;;;;;;1.30;1.00;;;;;;;7.82;62.00;96003.88;5052630;28;20900;-68
2021/03/12 00:50:32;;;;;;;3.83;1.20;;;;;;;7.79;62.51;96011.22;5050626;28;20930;-69
2021/03/12 00:52:59;;;;;;;5.03;1.30;;;;;;;7.49;62.17;96016.13;5051937;28;20521;-67
2021/03/12 00:55:24;;;;;;;3.43;1.00;;;;;;;7.70;61.51;96023.44;5056402;28;21006;-68
2021/03/12 00:57:50;;;;;;;3.73;1.20;;;;;;;7.45;61.92;96044.28;5056693;28;20437;-69
2021/03/12 01:00:28;;;;;;;3.33;1.00;;;;;;;7.69;60.84;96035.66;5053621;28;20234;-69
2021/03/12 01:02:54;;;;;;;4.90;1.17;;;;;;;7.73;61.47;96033.53;5048532;28;20214;-67
2021/03/12 01:05:21;;;;;;;6.20;0.87;;;;;;;7.84;59.98;96032.41;5057905;28;20491;-68
2021/03/12 01:07:47;;;;;;;5.03;1.23;;;;;;;7.81;60.18;96045.78;5058301;28;20448;-67
2021/03/12 01:10:14;;;;;;;4.77;1.30;;;;;;;7.68;60.42;96041.88;5050523;28;20831;-69
2021/03/12 01:12:39;;;;;;;3.47;1.20;;;;;;;7.91;59.86;96048.22;5057386;28;20453;-68
2021/03/12 01:15:08;;;;;;;2.13;0.80;;;;;;;7.96;60.05;96051.13;5038012;28;20443;-70
2021/03/12 01:17:34;;;;;;;4.23;1.10;;;;;;;7.75;60.33;96041.22;5056652;28;20437;-68
2021/03/12 01:20:01;;;;;;;3.33;1.10;;;;;;;7.93;59.16;96048.88;5048582;28;20464;-66
2021/03/12 01:22:27;;;;;;;2.50;0.90;;;;;;;7.91;59.92;96048.22;5065843;28;20937;-66
2021/03/12 01:24:53;;;;;;;5.43;1.07;;;;;;;7.68;59.27;96061.91;5053797;28;20528;-68
2021/03/12 01:27:18;;;;;;;5.37;1.43;;;;;;;7.95;58.10;96057.34;5055074;28;20186;-70
2021/03/12 01:29:44;;;;;;;6.33;1.67;;;;;;;7.86;57.66;96063.53;5036986;28;20422;-68
2021/03/12 01:32:10;;;;;;;4.47;1.17;;;;;;;7.99;57.35;96049.03;5063111;28;20717;-69
2021/03/12 01:34:36;;;;;;;2.73;1.00;;;;;;;8.30;56.95;96039.69;5055784;28;20434;-69
2021/03/12 01:37:02;;;;;;;2.80;1.10;;;;;;;7.67;58.02;96055.06;5046689;28;20194;-67
2021/03/12 01:39:27;;;;;;;4.37;1.10;;;;;;;7.94;56.36;96048.72;5048126;28;20194;-67
2021/03/12 01:41:53;;;;;;;7.00;1.50;;;;;;;7.95;56.31;96060.78;5047582;28;20198;-66
2021/03/12 01:44:19;;;;;;;1.60;1.00;;;;;;;7.46;60.26;96073.78;5060020;28;20201;-69
2021/03/12 01:46:44;;;;;;;1.83;0.90;;;;;;;7.02;64.24;96073.00;5057411;28;20187;-69
2021/03/12 01:49:10;;;;;;;2.20;1.13;;;;;;;7.10;65.09;96092.25;5068200;28;20206;-68
2021/03/12 01:51:36;;;;;;;1.73;0.80;;;;;;;6.34;67.85;96092.88;5064931;28;20207;-68
2021/03/12 01:54:01;;;;;;;3.90;1.20;;;;;;;6.21;69.17;96111.47;5054697;28;20593;-70
2021/03/12 01:56:28;;;;;;;2.43;0.90;;;;;;;6.16;69.82;96124.13;5054827;28;20700;-66
2021/03/12 01:58:54;;;;;;;5.13;1.30;;;;;;;6.51;68.80;96112.00;5053599;28;20205;-68
2021/03/12 02:01:19;;;;;;;4.47;1.37;;;;;;;6.38;68.96;96109.78;5055479;28;20536;-68
2021/03/12 02:03:45;;;;;;;4.70;1.13;;;;;;;6.39;68.75;96110.63;5052476;28;20456;-69
2021/03/12 02:06:11;;;;;;;3.97;0.90;;;;;;;6.80;67.66;96113.47;5054287;28;20236;-69
2021/03/12 02:08:37;;;;;;;3.30;1.00;;;;;;;6.76;66.98;96099.91;5054863;28;20622;-69
2021/03/12 02:11:02;;;;;;;2.60;1.23;;;;;;;6.70;66.88;96113.56;5055043;28;20191;-69
2021/03/12 02:13:32;;;;;;;4.10;1.13;;;;;;;6.86;65.85;96102.41;5066338;28;20195;-67
2021/03/12 02:16:09;;;;;;;4.30;1.67;;;;;;;6.86;65.41;96105.03;5068404;28;20186;-68
2021/03/12 02:18:53;;;;;;;4.30;0.90;;;;;;;6.93;65.30;96104.41;5058197;28;20992;-67
2021/03/12 02:21:43;;;;;;;3.93;1.40;;;;;;;6.95;64.22;96116.31;5049426;28;20804;-67
2021/03/12 02:24:38;;;;;;;5.73;1.60;;;;;;;6.87;64.22;96111.88;5087822;28;20437;-69
2021/03/12 02:27:14;;;;;;;5.47;0.90;;;;;;;6.65;63.83;96096.78;5073230;28;20908;-67
2021/03/12 02:29:45;;;;;;;3.47;1.10;;;;;;;6.63;63.20;96111.75;5056525;28;20516;-68
2021/03/12 02:32:13;;;;;;;2.10;1.00;;;;;;;7.10;61.92;96115.72;5052675;28;20461;-68
2021/03/12 02:34:40;;;;;;;3.00;1.03;;;;;;;6.92;62.75;96119.22;5049838;28;20425;-68
2021/03/12 02:37:07;;;;;;;5.37;1.10;;;;;;;7.06;62.13;96121.22;5045203;28;20444;-68
2021/03/12 02:39:36;;;;;;;8.40;1.20;;;;;;;7.41;61.71;96117.75;5026104;28;20925;-69
2021/03/12 02:42:03;;;;;;;5.93;1.10;;;;;;;7.26;62.41;96117.56;5064233;28;20456;-66
2021/03/12 02:44:31;;;;;;;4.00;1.30;;;;;;;7.41;61.87;96118.59;5053151;28;21004;-65
2021/03/12 02:47:04;;;;;;;2.97;1.10;;;;;;;7.52;61.94;96115.69;5050267;28;20425;-68
2021/03/12 02:49:30;;;;;;;2.83;1.00;;;;;;;7.44;62.08;96118.25;5063548;28;20425;-68
2021/03/12 02:51:56;;;;;;;3.17;1.30;;;;;;;7.00;64.04;96116.63;5039191;28;20795;-67
2021/03/12 02:54:22;;;;;;;4.97;1.17;;;;;;;7.28;63.99;96115.63;5063229;28;20950;-67
2021/03/12 02:56:48;;;;;;;2.73;0.80;;;;;;;6.93;63.69;96110.44;5053341;28;20553;-67
2021/03/12 02:59:16;;;;;;;9.10;1.53;;;;;;;6.85;63.86;96111.19;5048053;28;20545;-68
2021/03/12 03:01:42;;;;;;;2.27;1.30;;;;;;;7.46;62.20;96110.28;5048393;28;20681;-66
2021/03/12 03:04:07;;;;;;;3.43;1.03;;;;;;;7.47;62.05;96112.72;5034086;28;20426;-69
2021/03/12 03:06:33;;;;;;;4.17;1.30;;;;;;;6.97;63.37;96116.97;5052741;28;20498;-68
2021/03/12 03:08:59;;;;;;;4.40;1.00;;;;;;;7.07;62.90;96120.25;5050641;28;20226;-66
2021/03/12 03:11:25;;;;;;;7.60;1.10;;;;;;;7.22;61.79;96109.25;5045610;28;20206;-67
2021/03/12 03:13:52;;;;;;;3.43;1.20;;;;;;;7.04;61.77;96127.56;5048558;28;20281;-68
2021/03/12 03:16:21;;;;;;;4.73;1.23;;;;;;;6.84;60.69;96113.97;5051765;28;20536;-68
2021/03/12 03:18:47;;;;;;;1.80;1.57;;;;;;;7.02;59.83;96114.69;5050496;28;20448;-69
2021/03/12 03:21:14;;;;;;;1.60;0.97;;;;;;;6.91;59.91;96118.41;5058063;28;20520;-67
2021/03/12 03:23:42;;;;;;;1.87;0.83;;;;;;;7.14;59.09;96114.41;5050606;28;20556;-69
2021/03/12 03:26:07;;;;;;;2.57;1.37;;;;;;;6.86;58.79;96110.22;5059169;28;20413;-69
2021/03/12 03:28:34;;;;;;;2.57;1.10;;;;;;;6.62;59.11;96113.50;5032829;28;20421;-67
2021/03/12 03:31:06;;;;;;;2.60;1.00;;;;;;;6.74;58.48;96121.88;5051403;28;20667;-67
2021/03/12 03:33:33;;;;;;;2.57;0.90;;;;;;;6.53;57.76;96130.91;5051737;28;20505;-68
2021/03/12 03:35:59;;;;;;;5.47;1.37;;;;;;;6.85;57.59;96133.84;5052004;28;20425;-68
2021/03/12 03:38:25;;;;;;;5.47;1.03;;;;;;;6.70;57.00;96157.00;5034514;28;20524;-68
2021/03/12 03:40:51;;;;;;;1.50;0.97;;;;;;;6.63;56.46;96137.78;5052765;28;20967;-68
2021/03/12 03:43:22;;;;;;;1.77;0.80;;;;;;;6.64;55.91;96158.44;5058674;28;20584;-67
2021/03/12 03:45:48;;;;;;;3.20;1.10;;;;;;;6.56;56.62;96169.63;5050840;28;20483;-69
2021/03/12 03:48:14;;;;;;;2.70;1.00;;;;;;;6.44;55.52;96160.41;5051575;28;20441;-68
2021/03/12 03:50:40;;;;;;;3.13;0.90;;;;;;;6.37;56.35;96185.44;5034690;28;20422;-68
2021/03/12 03:53:06;;;;;;;3.13;0.93;;;;;;;6.69;55.48;96181.41;5051590;28;20214;-69
2021/03/12 03:55:32;;;;;;;6.60;1.50;;;;;;;6.55;56.04;96186.19;5033281;28;20425;-67
2021/03/12 03:58:00;;;;;;;7.37;1.50;;;;;;;6.53;55.95;96187.31;5059885;28;20429;-68
2021/03/12 04:00:25;;;;;;;3.47;0.90;;;;;;;6.61;55.54;96182.19;5051418;28;20785;-70
2021/03/12 04:02:51;;;;;;;1.83;1.13;;;;;;;6.41;55.95;96189.38;5041784;28;20444;-67
2021/03/12 04:05:17;;;;;;;2.47;0.93;;;;;;;6.73;55.59;96199.22;5049811;28;20312;-68
2021/03/12 04:07:43;;;;;;;6.20;1.20;;;;;;;6.50;55.74;96193.66;5034674;28;20422;-68
2021/03/12 04:10:09;;;;;;;3.43;1.23;;;;;;;6.65;55.41;96213.94;5039935;28;20186;-67
2021/03/12 04:12:37;;;;;;;3.97;1.43;;;;;;;6.70;55.52;96209.09;5049868;28;20456;-68
2021/03/12 04:15:05;;;;;;;4.03;1.40;;;;;;;6.62;55.65;96222.84;5049084;28;20442;-67
2021/03/12 04:17:31;;;;;;;5.50;1.47;;;;;;;6.64;55.45;96225.34;5051380;28;20448;-68
2021/03/12 04:19:58;;;;;;;5.93;1.83;;;;;;;6.43;55.66;96223.84;5050724;28;20454;-67
2021/03/12 04:22:24;;;;;;;6.63;1.40;;;;;;;6.35;55.16;96234.19;5056197;28;20460;-68
2021/03/12 04:24:50;;;;;;;6.07;1.30;;;;;;;6.60;54.31;96237.84;5048455;28;20429;-69
2021/03/12 04:27:16;;;;;;;4.60;1.30;;;;;;;6.52;54.52;96236.00;5050330;28;20429;-67
2021/03/12 04:29:42;;;;;;;8.43;1.27;;;;;;;6.96;53.58;96232.56;5033402;28;20425;-68
2021/03/12 04:32:08;;;;;;;8.77;1.30;;;;;;;6.84;53.57;96226.75;5050569;28;20202;-68
2021/03/12 04:34:34;;;;;;;2.90;0.90;;;;;;;6.69;53.84;96239.53;5048883;28;20901;-67
2021/03/12 04:37:00;;;;;;;6.10;1.13;;;;;;;6.65;54.02;96245.19;5054265;28;20475;-67
2021/03/12 04:39:27;;;;;;;7.37;1.20;;;;;;;6.76;53.64;96242.34;5054685;28;20665;-68
2021/03/12 04:41:52;;;;;;;4.47;1.07;;;;;;;6.94;53.77;96251.88;5062814;28;20453;-68
2021/03/12 04:44:19;;;;;;;3.60;1.30;;;;;;;6.83;53.86;96243.34;5039187;28;20443;-68
2021/03/12 04:46:45;;;;;;;9.23;1.20;;;;;;;6.76;53.73;96245.75;5054228;28;20199;-68
2021/03/12 04:49:12;;;;;;;5.90;1.77;;;;;;;6.32;52.90;96247.50;5054096;28;20440;-69
2021/03/12 04:51:38;;;;;;;2.70;1.13;;;;;;;6.64;51.99;96248.75;5053630;28;20449;-68
2021/03/12 04:54:09;;;;;;;5.00;1.17;;;;;;;6.33;52.19;96260.38;5053233;28;21019;-67
2021/03/12 04:56:38;;;;;;;5.23;1.20;;;;;;;6.71;51.69;96249.78;5054458;28;20516;-68
2021/03/12 04:59:04;;;;;;;3.10;1.10;;;;;;;6.34;51.17;96242.97;5078313;28;20465;-68
2021/03/12 05:01:31;;;;;;;4.90;1.00;;;;;;;6.39;51.75;96253.78;5054443;28;20441;-67
2021/03/12 05:03:57;;;;;;;3.33;1.00;;;;;;;6.36;51.61;96257.50;5051865;28;20479;-68
2021/03/12 05:06:23;;;;;;;7.47;1.53;;;;;;;6.68;51.23;96263.94;5053350;28;20426;-68
2021/03/12 05:08:48;;;;;;;1.73;1.00;;;;;;;6.58;51.74;96273.63;5053872;28;20425;-68
2021/03/12 05:11:15;;;;;;;4.60;1.33;;;;;;;6.66;51.49;96265.06;5053771;28;20675;-68
2021/03/12 05:13:41;;;;;;;5.10;1.40;;;;;;;6.34;52.57;96271.59;5052561;28;20489;-68
2021/03/12 05:16:07;;;;;;;4.23;1.20;;;;;;;6.46;52.24;96270.41;5051358;28;20432;-68
2021/03/12 05:18:32;;;;;;;6.00;1.53;;;;;;;6.57;52.37;96272.78;5053942;28;20558;-67
2021/03/12 05:20:58;;;;;;;5.73;1.20;;;;;;;6.88;51.80;96269.78;5060092;28;20967;-67
2021/03/12 05:23:24;;;;;;;1.90;0.90;;;;;;;6.59;52.51;96267.44;5062806;28;20476;-68
2021/03/12 05:25:51;;;;;;;4.43;1.10;;;;;;;6.81;52.64;96260.13;5064920;28;20182;-68
2021/03/12 05:28:16;;;;;;;3.80;1.13;;;;;;;6.66;52.66;96271.06;5058603;28;20223;-69
2021/03/12 05:30:43;;;;;;;8.20;1.33;;;;;;;6.56;53.29;96276.34;5039578;28;20421;-68
2021/03/12 05:33:09;;;;;;;3.57;1.00;;;;;;;6.81;52.74;96266.13;5044266;28;20203;-68
2021/03/12 05:35:35;;;;;;;7.23;1.63;;;;;;;6.70;53.03;96275.03;5052200;28;20533;-69
2021/03/12 05:38:02;;;;;;;7.83;1.10;;;;;;;6.91;52.70;96273.84;5051627;28;20673;-67
2021/03/12 05:40:27;;;;;;;3.53;1.00;;;;;;;6.88;53.08;96269.78;5054912;28;20268;-67
2021/03/12 05:42:54;;;;;;;4.90;1.50;;;;;;;6.60;53.66;96272.50;5052366;28;20453;-67
2021/03/12 05:45:21;;;;;;;2.10;1.00;;;;;;;6.89;53.34;96273.19;5051116;28;20190;-68
2021/03/12 05:47:48;;;;;;;8.40;1.67;;;;;;;6.80;53.32;96281.91;5052467;28;20425;-68
2021/03/12 05:50:14;;;;;;;4.10;1.20;;;;;;;6.94;52.60;96280.53;5052990;28;20429;-70
2021/03/12 05:52:47;;;;;;;6.57;1.43;;;;;;;6.92;53.07;96283.31;5052684;28;20460;-70
2021/03/12 05:55:16;;;;;;;5.20;1.17;;;;;;;7.05;52.82;96280.31;5052977;28;20438;-68
2021/03/12 05:57:42;;;;;;;2.93;1.23;;;;;;;6.48;53.98;96284.09;5053057;28;20516;-68
2021/03/12 06:00:09;;;;;;;4.90;1.23;;;;;;;6.55;53.72;96277.31;5051832;28;20611;-67
2021/03/12 06:02:34;;;;;;;2.13;1.00;;;;;;;6.87;53.51;96278.56;5053179;28;20221;-71
2021/03/12 06:05:00;;;;;;;4.03;0.90;;;;;;;6.97;53.31;96277.66;5052310;28;20433;-67
2021/03/12 06:07:25;;;;;;;2.60;1.20;;;;;;;6.90;53.68;96278.25;5053214;28;20226;-67
2021/03/12 06:09:51;;;;;;;2.90;1.10;;;;;;;6.36;55.16;96287.91;5051915;28;20179;-67
2021/03/12 06:12:17;;;;;;;8.00;1.03;;;;;;;6.25;55.64;96276.75;5052773;28;20199;-69
2021/03/12 06:14:53;;;;;;;6.00;1.40;;;;;;;6.83;55.37;96260.78;5052609;28;20183;-68
2021/03/12 06:17:44;;;;;;;5.60;1.20;;;;;;;6.35;56.62;96268.03;5052570;28;20557;-68
2021/03/12 06:20:18;;;;;;;5.53;1.13;;;;;;;6.58;56.19;96264.00;5052318;28;20458;-68
2021/03/12 06:22:57;;;;;;;2.43;1.00;;;;;;;6.55;56.53;96269.50;5056329;28;20445;-69
2021/03/12 06:25:24;;;;;;;7.73;1.60;;;;;;;6.45;56.75;96268.78;5052773;28;20431;-69
2021/03/12 06:27:52;;;;;;;6.00;1.60;;;;;;;6.37;57.29;96273.91;5044211;28;20916;-67
2021/03/12 06:30:20;;;;;;;2.23;1.13;;;;;;;6.53;57.05;96271.47;5059512;28;20425;-66
2021/03/12 06:32:49;;;;;;;10.87;1.60;;;;;;;6.44;57.58;96280.16;5056145;28;20475;-68
2021/03/12 06:35:16;;;;;;;6.53;1.17;;;;;;;6.96;55.88;96286.44;5051241;28;20441;-67
2021/03/12 06:37:45;;;;;;;6.90;1.90;;;;;;;6.67;56.18;96296.16;5053027;28;20512;-67
2021/03/12 06:40:19;;;;;;;4.27;1.33;;;;;;;6.77;55.85;96293.47;5043321;28;20452;-68
2021/03/12 06:43:04;;;;;;;5.13;1.60;;;;;;;7.05;55.44;96291.56;5052146;28;20497;-66
2021/03/12 06:45:31;;;;;;;5.00;1.60;;;;;;;6.53;56.92;96291.47;5052271;28;20896;-66
2021/03/12 06:48:25;;;;;;;4.03;1.50;;;;;;;6.58;57.09;96299.66;5084989;28;20417;-68
2021/03/12 06:50:56;;;;;;;4.63;1.10;;;;;;;6.97;56.18;96308.91;5061427;28;20425;-69
2021/03/12 06:53:46;;;;;;;4.23;1.17;;;;;;;6.89;56.59;96307.88;5085033;28;20452;-68
2021/03/12 06:56:13;;;;;;;9.73;1.40;;;;;;;7.13;56.85;96313.41;5044584;28;20513;-69
2021/03/12 06:58:57;;;;;;;4.37;1.00;;;;;;;6.67;58.33;96319.56;5050623;28;20441;-69
2021/03/12 07:01:22;;;;;;;4.10;1.20;;;;;;;6.43;60.23;96322.75;5052691;28;20452;-68
2021/03/12 07:04:10;;;;;;;5.73;1.30;;;;;;;6.24;60.99;96324.53;5062460;28;20422;-67
2021/03/12 07:06:44;;;;;;;2.47;1.43;;;;;;;6.70;60.41;96323.66;5080354;28;20190;-66
2021/03/12 07:09:10;;;;;;;5.03;1.30;;;;;;;6.96;60.17;96322.91;5055619;28;20418;-68
2021/03/12 07:11:36;;;;;;;4.27;1.10;;;;;;;7.29;59.11;96323.94;5051618;28;21108;-68
2021/03/12 07:14:02;;;;;;;5.77;1.23;;;;;;;8.14;56.52;96328.44;5054393;28;20425;-67
2021/03/12 07:16:29;;;;;;;2.60;1.20;;;;;;;8.38;55.34;96329.47;5055402;28;20421;-69
2021/03/12 07:18:55;;;;;;;2.67;1.30;;;;;;;7.88;56.21;96325.06;5072489;28;20424;-68
2021/03/12 07:21:23;;;;;;;2.50;1.13;;;;;;;7.44;57.04;96332.00;5073198;28;20436;-68
2021/03/12 07:23:50;;;;;;;2.67;1.60;;;;;;;7.10;58.22;96340.59;5070847;28;20788;-66
2021/03/12 07:26:17;;;;;;;8.90;1.27;;;;;;;7.31;57.89;96344.66;5053216;28;20418;-68
2021/03/12 07:28:44;;;;;;;4.80;1.97;;;;;;;6.98;59.18;96337.44;5058437;28;20472;-68
2021/03/12 07:31:11;;;;;;;3.00;1.00;;;;;;;7.28;58.91;96342.34;5044515;28;20502;-67
2021/03/12 07:33:40;;;;;;;2.70;0.90;;;;;;;7.28;57.84;96337.16;5052079;28;20452;-68
2021/03/12 07:36:08;;;;;;;3.77;0.80;;;;;;;7.11;57.74;96349.25;5055290;28;20429;-68
2021/03/12 07:38:35;;;;;;;2.80;1.17;;;;;;;7.09;57.72;96349.38;5065522;28;20426;-68
2021/03/12 07:41:12;;;;;;;1.93;0.90;;;;;;;7.60;56.56;96340.91;5042556;28;20458;-67
2021/03/12 07:43:39;;;;;;;3.43;0.90;;;;;;;7.49;56.40;96339.41;5051487;28;20783;-69
2021/03/12 07:46:07;;;;;;;8.23;1.00;;;;;;;7.57;56.52;96342.03;5049819;28;20429;-68
2021/03/12 07:48:34;;;;;;;8.83;1.27;;;;;;;7.50;56.04;96347.06;5051751;28;20425;-67
2021/03/12 07:51:10;;;;;;;2.60;1.67;;;;;;;7.53;55.69;96344.16;5059103;28;20447;-67
2021/03/12 07:53:55;;;;;;;8.27;1.50;;;;;;;7.61;55.86;96342.56;5062686;28;20450;-68
2021/03/12 07:56:43;;;;;;;4.07;1.00;;;;;;;7.77;54.65;96347.84;5044998;28;20421;-68
2021/03/12 07:59:09;;;;;;;6.17;1.10;;;;;;;7.89;55.01;96353.59;5051418;28;20446;-68
2021/03/12 08:01:55;;;;;;;9.63;1.50;;;;;;;7.77;54.98;96353.06;5050974;28;20970;-67
2021/03/12 08:04:47;;;;;;;4.80;1.20;;;;;;;8.29;52.62;96346.91;5050851;28;20430;-67
2021/03/12 08:07:16;;;;;;;3.33;0.80;;;;;;;8.08;53.91;96352.53;5041959;28;20808;-67
2021/03/12 08:09:42;;;;;;;2.77;0.93;;;;;;;8.30;52.96;96351.16;5051465;28;20762;-66
2021/03/12 08:12:08;;;;;;;3.90;1.13;;;;;;;8.72;52.96;96343.44;5054611;28;20430;-66
2021/03/12 08:14:34;;;;;;;4.47;1.10;;;;;;;8.98;51.50;96348.50;5054009;28;20421;-67
2021/03/12 08:17:04;;;;;;;4.00;1.13;;;;;;;8.78;52.58;96350.63;5053469;28;20954;-68
2021/03/12 08:19:34;;;;;;;7.63;1.10;;;;;;;9.28;50.98;96354.06;5061256;28;20206;-68
2021/03/12 08:22:02;;;;;;;6.07;1.27;;;;;;;8.68;52.30;96366.47;5061927;28;20481;-67
2021/03/12 08:24:45;;;;;;;1.87;0.90;;;;;;;9.37;50.07;96350.47;5054424;28;20951;-68
2021/03/12 08:27:11;;;;;;;9.77;1.20;;;;;;;8.11;53.37;96349.63;5055694;28;20422;-68
2021/03/12 08:29:43;;;;;;;4.10;1.23;;;;;;;8.79;51.77;96352.25;5064052;28;20795;-67
2021/03/12 08:32:34;;;;;;;1.73;1.07;;;;;;;9.03;50.57;96350.63;5049237;28;20448;-67
2021/03/12 08:34:59;;;;;;;8.53;1.57;;;;;;;9.56;49.20;96353.72;5061506;28;20863;-68
2021/03/12 08:37:25;;;;;;;7.47;1.20;;;;;;;9.80;48.02;96352.00;5063500;28;20454;-67
2021/03/12 08:40:13;;;;;;;3.37;1.03;;;;;;;10.29;47.34;96354.44;5056599;28;20298;-68
2021/03/12 08:42:55;;;;;;;5.40;1.50;;;;;;;9.85;48.67;96360.16;5058808;28;20215;-68
2021/03/12 08:45:37;;;;;;;4.00;0.90;;;;;;;9.98;47.62;96351.78;5053090;28;20456;-65
2021/03/12 08:48:07;;;;;;;2.80;1.00;;;;;;;9.61;47.63;96354.00;5055161;28;20859;-66
2021/03/12 08:50:38;;;;;;;5.60;1.10;;;;;;;9.71;47.08;96360.84;5060749;28;20426;-67
2021/03/12 08:53:05;;;;;;;4.90;1.20;;;;;;;9.51;47.62;96348.16;5054529;28;20957;-69
2021/03/12 08:55:32;;;;;;;4.00;1.83;;;;;;;9.92;46.92;96345.44;5054169;28;20468;-66
2021/03/12 08:58:15;;;;;;;6.83;1.23;;;;;;;9.14;48.56;96352.13;5056612;28;20437;-67
2021/03/12 09:00:42;;;;;;;6.57;1.03;;;;;;;9.41;48.19;96339.66;5044038;28;21030;-66
2021/03/12 09:03:16;;;;;;;3.43;0.97;;;;;;;9.57;47.18;96344.06;5058248;28;20547;-69
2021/03/12 09:05:43;;;;;;;15.83;1.37;;;;;;;9.53;46.23;96335.72;5057232;28;20437;-68
2021/03/12 09:08:09;;;;;;;5.83;1.00;;;;;;;9.81;45.37;96341.38;5045960;28;20739;-67
2021/03/12 09:10:35;;;;;;;6.87;0.90;;;;;;;9.51;45.26;96340.31;5055413;28;20494;-67
2021/03/12 09:13:01;;;;;;;2.63;1.10;;;;;;;10.01;44.80;96327.06;5052663;28;20536;-67
2021/03/12 09:15:27;;;;;;;2.80;1.03;;;;;;;9.65;45.72;96336.16;5054038;28;20187;-67
2021/03/12 09:17:56;;;;;;;4.17;1.30;;;;;;;9.42;46.29;96326.41;5054186;28;20183;-69
2021/03/12 09:20:23;;;;;;;3.57;1.27;;;;;;;9.83;45.05;96328.94;5063572;28;20445;-66
2021/03/12 09:22:53;;;;;;;4.60;1.30;;;;;;;8.79;47.15;96335.78;5053099;28;20477;-66
2021/03/12 09:25:29;;;;;;;3.53;0.80;;;;;;;8.82;47.49;96338.06;5053840;28;20624;-66
2021/03/12 09:27:58;;;;;;;3.47;1.33;;;;;;;9.47;46.31;96334.59;5054564;28;20414;-66
2021/03/12 09:30:32;;;;;;;5.13;1.60;;;;;;;9.26;45.93;96331.69;5036482;28;20471;-70
2021/03/12 09:32:59;;;;;;;4.47;1.00;;;;;;;9.50;45.42;96331.66;5053578;28;20505;-67
2021/03/12 09:35:24;;;;;;;2.87;1.13;;;;;;;9.82;45.55;96339.59;5059846;28;20440;-66
2021/03/12 09:37:58;;;;;;;9.83;1.40;;;;;;;10.02;45.13;96326.09;5053791;28;20434;-67
2021/03/12 09:40:41;;;;;;;6.63;1.30;;;;;;;9.79;45.02;96343.34;5053894;28;20207;-66
2021/03/12 09:43:07;;;;;;;2.70;1.30;;;;;;;9.04;46.39;96341.81;5062797;28;20532;-68
2021/03/12 09:45:34;;;;;;;3.67;1.30;;;;;;;8.76;47.75;96342.13;5051528;28;20952;-68
2021/03/12 09:47:59;;;;;;;3.70;1.40;;;;;;;8.81;48.02;96344.28;5053109;28;20429;-67
2021/03/12 09:50:25;;;;;;;4.40;1.17;;;;;;;8.95;47.52;96340.19;5052695;28;20442;-67
2021/03/12 09:52:56;;;;;;;5.27;1.30;;;;;;;9.02;47.98;96339.38;5052702;28;20211;-66
2021/03/12 09:55:22;;;;;;;4.40;1.20;;;;;;;8.95;47.87;96346.22;5052792;28;20417;-67
2021/03/12 09:57:48;;;;;;;3.57;0.90;;;;;;;9.06;47.22;96342.47;5054189;28;20421;-68
2021/03/12 10:00:22;;;;;;;5.80;1.10;;;;;;;8.95;47.85;96350.63;5053235;28;20459;-70
2021/03/12 10:02:58;;;;;;;9.27;1.90;;;;;;;8.85;48.29;96356.03;5062134;28;20291;-70
2021/03/12 10:05:25;;;;;;;8.43;1.70;;;;;;;8.54;49.99;96354.03;5065881;28;20417;-70
2021/03/12 10:07:51;;;;;;;6.13;1.37;;;;;;;8.36;49.75;96351.50;5056042;28;20517;-69
2021/03/12 10:10:29;;;;;;;8.13;2.47;;;;;;;8.69;49.79;96357.66;5036125;28;20434;-69
2021/03/12 10:12:56;;;;;;;3.40;1.30;;;;;;;8.78;49.60;96353.22;5052528;28;20441;-71
2021/03/12 10:15:24;;;;;;;6.20;1.07;;;;;;;8.94;49.17;96357.69;5053932;28;20428;-69
2021/03/12 10:17:51;;;;;;;6.77;0.83;;;;;;;9.19;49.35;96358.47;5054434;28;20486;-69
2021/03/12 10:20:19;;;;;;;5.73;1.20;;;;;;;9.38;49.67;96361.75;5064898;28;20570;-68
2021/03/12 10:22:47;;;;;;;4.90;1.40;;;;;;;9.86;50.52;96369.66;5067720;28;20495;-69
2021/03/12 10:25:16;;;;;;;7.00;1.50;;;;;;;9.33;54.57;96364.84;5054164;28;20461;-69
2021/03/12 10:27:45;;;;;;;4.37;1.53;;;;;;;9.89;52.89;96358.84;5052821;28;20536;-69
2021/03/12 10:30:18;;;;;;;7.27;1.73;;;;;;;10.23;51.97;96349.06;5047926;28;20437;-69
2021/03/12 10:32:49;;;;;;;3.00;1.30;;;;;;;9.81;53.12;96361.50;5054040;28;20445;-70
2021/03/12 10:35:16;;;;;;;3.03;1.13;;;;;;;10.47;52.18;96358.63;5053117;28;20525;-69
2021/03/12 10:37:42;;;;;;;7.80;1.60;;;;;;;10.58;51.84;96350.41;5054345;28;20928;-70
2021/03/12 10:40:08;;;;;;;4.30;1.17;;;;;;;9.66;52.28;96353.50;5058643;28;20489;-69
2021/03/12 10:42:34;;;;;;;3.57;1.37;;;;;;;10.21;51.11;96345.81;5058638;28;20271;-69
2021/03/12 10:45:05;;;;;;;1.97;1.10;;;;;;;10.28;50.04;96341.50;5053803;28;20426;-69
2021/03/12 10:47:30;;;;;;;4.30;1.30;;;;;;;10.00;51.55;96328.88;5053729;28;20885;-68
2021/03/12 10:49:56;;;;;;;1.67;0.90;;;;;;;9.53;52.39;96348.81;5062892;28;20428;-67
2021/03/12 10:52:24;;;;;;;4.20;1.33;;;;;;;9.08;52.94;96337.91;5052013;28;20474;-69
2021/03/12 10:54:50;;;;;;;2.20;1.10;;;;;;;9.17;52.87;96331.69;5051634;28;20199;-68
2021/03/12 10:57:16;;;;;;;3.50;1.30;;;;;;;8.95;53.06;96341.00;5055058;28;20427;-70
2021/03/12 10:59:55;;;;;;;5.20;1.23;;;;;;;9.34;52.14;96339.53;5051397;28;20195;-69
2021/03/12 11:02:31;;;;;;;2.50;0.90;;;;;;;9.32;51.22;96326.63;5061682;28;20317;-70
2021/03/12 11:04:56;;;;;;;2.50;1.10;;;;;;;9.49;50.92;96311.72;5051926;28;20448;-68
2021/03/12 11:07:22;;;;;;;3.53;1.30;;;;;;;9.99;48.36;96307.09;5051489;28;20454;-68
2021/03/12 11:09:48;;;;;;;2.57;0.90;;;;;;;9.91;46.91;96312.38;5052379;28;20821;-67
2021/03/12 11:12:13;;;;;;;3.10;1.07;;;;;;;9.80;45.40;96303.09;5052332;28;20238;-68
2021/03/12 11:14:39;;;;;;;5.80;2.10;;;;;;;10.27;44.35;96298.78;5052193;28;20201;-67
2021/03/12 11:17:04;;;;;;;2.30;0.90;;;;;;;9.92;45.40;96284.41;5051036;28;20187;-68
2021/03/12 11:19:31;;;;;;;2.23;1.10;;;;;;;9.94;44.81;96285.88;5057135;28;20210;-66
2021/03/12 11:21:56;;;;;;;6.60;1.00;;;;;;;10.21;43.66;96282.97;5054497;28;20207;-66
2021/03/12 11:24:22;;;;;;;3.23;1.37;;;;;;;10.38;43.02;96281.91;5051946;28;20417;-68
2021/03/12 11:26:47;;;;;;;1.63;0.90;;;;;;;11.39;41.83;96280.91;5066188;28;20226;-67
2021/03/12 11:29:13;;;;;;;4.80;1.00;;;;;;;10.90;42.38;96287.41;5067712;28;20179;-68
2021/03/12 11:31:41;;;;;;;5.50;1.47;;;;;;;10.93;41.85;96281.81;5064060;28;20230;-67
2021/03/12 11:34:07;;;;;;;2.63;1.10;;;;;;;9.94;43.97;96277.19;5051000;28;20174;-69
2021/03/12 11:36:33;;;;;;;2.70;1.10;;;;;;;11.08;41.78;96279.25;5051769;28;20434;-67
2021/03/12 11:38:59;;;;;;;5.30;2.17;;;;;;;10.98;40.49;96276.88;5069577;28;20433;-68
2021/03/12 11:41:25;;;;;;;2.80;1.10;;;;;;;11.46;39.98;96270.50;5086503;28;20237;-69
2021/03/12 11:43:51;;;;;;;3.00;1.00;;;;;;;11.49;39.83;96265.69;5066404;28;20242;-70
2021/03/12 11:46:16;;;;;;;2.97;1.10;;;;;;;10.74;39.79;96262.97;5049589;28;20426;-68
2021/03/12 11:48:42;;;;;;;2.77;1.13;;;;;;;11.25;39.87;96253.69;5061118;28;20273;-68